.
WxDataArchive / Data Records for 2010-02-15
2010-02-14 February 2010 2010-02-16

Data Records for Monday, 15 February 2010

Time	Temp	Chill	HIndex	Humid	Dewpt	 Wind 	HiWind	WindDir	Rain 	Barom 
-----	----	-----	------	-----	-----	------	------	-------	-----	----- 
00:00	11.7	11.7	11.7	81	7.0	0	0	---	0.00	29.865 
00:05	11.7	11.7	11.7	81	7.0	0	0	---	0.00	29.865 
00:10	11.6	11.6	11.6	82	7.2	0	0	---	0.00	29.865 
00:15	11.4	11.4	11.4	82	7.0	0	0	---	0.00	29.860 
00:20	11.1	11.1	11.1	82	6.7	0	0	---	0.00	29.860 
00:25	10.9	10.9	10.9	82	6.5	0	0	---	0.00	29.860 
00:30	10.7	10.7	10.7	82	6.3	0	0	---	0.00	29.852 
00:35	10.5	10.5	10.5	83	6.4	0	0	---	0.00	29.852 
00:40	10.5	10.5	10.5	83	6.4	0	0	---	0.00	29.852 
00:45	10.5	10.5	10.5	83	6.4	0	0	---	0.00	29.853 
00:50	10.5	10.5	10.5	83	6.4	0	0	---	0.00	29.853 
00:55	10.4	10.4	10.4	84	6.5	0	0	---	0.00	29.853 
01:00	10.4	10.4	10.4	84	6.5	0	0	---	0.00	29.859 
01:05	10.2	10.2	10.2	84	6.3	0	0	---	0.00	29.859 
01:10	10.0	10.0	10.0	84	6.2	0	0	---	0.00	29.859 
01:15	9.9	9.9	9.9	84	6.1	0	0	---	0.00	29.857 
01:20	9.7	9.7	9.7	84	5.9	0	0	---	0.00	29.857 
01:25	9.5	9.5	9.5	84	5.7	0	0	---	0.00	29.857 
01:30	9.3	9.3	9.3	84	5.5	0	0	---	0.00	29.855 
01:35	9.2	9.2	9.2	84	5.4	0	0	---	0.00	29.855 
01:40	8.8	8.8	8.8	84	5.0	0	0	---	0.00	29.855 
01:45	8.6	8.6	8.6	84	4.8	0	0	---	0.00	29.846 
01:50	8.6	8.6	8.6	84	4.8	0	0	---	0.00	29.846 
01:55	8.6	8.6	8.6	84	4.8	0	0	---	0.00	29.846 
02:00	8.6	8.6	8.6	84	4.8	0	0	---	0.00	29.848 
02:05	8.6	8.6	8.6	84	4.8	0	0	---	0.00	29.848 
02:10	8.6	8.6	8.6	84	4.8	0	0	---	0.00	29.848 
02:15	8.4	8.4	8.4	84	4.6	0	0	---	0.00	29.848 
02:20	8.4	8.4	8.4	84	4.6	0	0	---	0.00	29.848 
02:25	8.3	8.3	8.3	84	4.5	0	0	---	0.00	29.848 
02:30	8.3	8.3	8.3	84	4.5	0	0	---	0.00	29.848 
02:35	8.1	8.1	8.1	84	4.3	0	0	---	0.00	29.848 
02:40	8.1	8.1	8.1	84	4.3	0	0	---	0.00	29.848 
02:45	8.1	8.1	8.1	84	4.3	0	0	---	0.00	29.848 
02:50	7.9	7.9	7.9	84	4.1	0	0	---	0.00	29.848 
02:55	7.7	7.7	7.7	84	3.9	0	0	---	0.00	29.848 
03:00	7.4	7.4	7.4	84	3.6	0	0	---	0.00	29.847 
03:05	7.4	7.4	7.4	84	3.6	0	0	---	0.00	29.847 
03:10	7.4	7.4	7.4	84	3.6	0	0	---	0.00	29.847 
03:15	7.4	7.4	7.4	84	3.6	0	0	---	0.00	29.845 
03:20	7.2	7.2	7.2	84	3.4	0	0	---	0.00	29.845 
03:25	7.2	7.2	7.2	84	3.4	0	0	---	0.00	29.845 
03:30	7.2	7.2	7.2	84	3.4	0	0	---	0.00	29.833 
03:35	7.0	7.0	7.0	84	3.2	0	0	---	0.00	29.833 
03:40	7.2	7.2	7.2	84	3.4	0	0	---	0.00	29.833 
03:45	7.2	7.2	7.2	84	3.4	0	0	---	0.00	29.825 
03:50	7.2	7.2	7.2	84	3.4	0	0	---	0.00	29.825 
03:55	7.0	7.0	7.0	84	3.2	0	0	---	0.00	29.825 
04:00	7.0	7.0	7.0	84	3.2	0	0	---	0.00	29.817 
04:05	7.0	7.0	7.0	84	3.2	0	0	---	0.00	29.817 
04:10	7.0	7.0	7.0	84	3.2	0	0	---	0.00	29.817 
04:15	7.0	7.0	7.0	84	3.2	0	0	---	0.00	29.805 
04:20	7.0	7.0	7.0	84	3.2	0	0	---	0.00	29.805 
04:25	7.0	7.0	7.0	84	3.2	0	0	---	0.00	29.805 
04:30	7.0	7.0	7.0	84	3.2	0	0	---	0.00	29.798 
04:35	6.9	6.9	6.9	84	3.1	0	0	---	0.00	29.798 
04:40	6.7	6.7	6.7	84	2.9	0	0	---	0.00	29.798 
04:45	6.7	6.7	6.7	84	2.9	0	0	---	0.00	29.798 
04:50	6.7	6.7	6.7	84	2.9	0	0	---	0.00	29.798 
04:55	6.5	6.5	6.5	84	2.7	0	0	---	0.00	29.798 
05:00	6.5	6.5	6.5	84	2.7	0	1	248	0.00	29.794 
05:05	6.5	6.5	6.5	84	2.7	0	0	---	0.00	29.794 
05:10	6.3	6.3	6.3	84	2.5	0	0	---	0.00	29.794 
05:15	6.3	6.3	6.3	84	2.5	0	0	---	0.00	29.792 
05:20	6.1	6.1	6.1	84	2.3	0	0	---	0.00	29.792 
05:25	6.1	6.1	6.1	84	2.3	0	0	---	0.00	29.792 
05:30	6.0	6.0	6.0	84	2.2	0	0	---	0.00	29.795 
05:35	6.0	6.0	6.0	84	2.2	0	0	---	0.00	29.795 
05:40	6.0	6.0	6.0	84	2.2	0	0	---	0.00	29.795 
05:45	5.8	5.8	5.8	84	2.0	0	0	---	0.00	29.786 
05:50	5.8	5.8	5.8	84	2.0	0	0	---	0.00	29.786 
05:55	5.6	5.6	5.6	83	1.6	0	0	---	0.00	29.786 
06:00	5.6	5.6	5.6	84	1.8	0	0	---	0.00	29.789 
06:05	5.6	5.6	5.6	84	1.8	0	0	---	0.00	29.789 
06:10	5.6	5.6	5.6	84	1.8	0	0	---	0.00	29.789 
06:15	5.8	5.8	5.8	83	1.8	0	0	---	0.00	29.791 
06:20	5.8	5.8	5.8	83	1.8	0	0	---	0.00	29.791 
06:25	5.8	5.8	5.8	84	2.0	0	0	---	0.00	29.791 
06:30	5.8	5.8	5.8	83	1.8	0	0	---	0.00	29.788 
06:35	5.6	5.6	5.6	83	1.6	0	0	---	0.00	29.788 
06:40	5.6	5.6	5.6	83	1.6	0	0	---	0.00	29.788 
06:45	5.8	5.8	5.8	83	1.8	0	0	---	0.00	29.777 
06:50	6.0	6.0	6.0	84	2.2	0	0	---	0.00	29.777 
06:55	6.3	6.3	6.3	84	2.5	0	0	---	0.00	29.777 
07:00	6.5	6.5	6.5	84	2.7	0	0	---	0.00	29.782 
07:05	6.9	6.9	6.9	84	3.1	0	0	---	0.00	29.782 
07:10	7.0	7.0	7.0	84	3.2	0	0	---	0.00	29.782 
07:15	7.4	7.4	7.4	85	3.9	0	0	---	0.00	29.776 
07:20	7.7	7.7	7.7	85	4.2	0	0	---	0.00	29.776 
07:25	8.4	8.4	8.4	86	5.1	0	1	248	0.00	29.776 
07:30	9.3	9.3	9.3	87	6.2	0	2	248	0.00	29.783 
07:35	10.2	10.2	10.2	87	7.1	0	2	248	0.00	29.783 
07:40	10.7	10.7	10.7	87	7.6	0	1	248	0.00	29.783 
07:45	10.9	10.9	10.9	86	7.6	0	1	248	0.00	29.785 
07:50	10.9	10.9	10.9	86	7.6	1	2	248	0.00	29.785 
07:55	10.9	10.9	10.9	85	7.3	0	1	248	0.00	29.785 
08:00	10.9	10.9	10.9	85	7.3	0	0	---	0.00	29.785 
08:05	11.1	11.1	11.1	85	7.5	0	0	---	0.00	29.785 
08:10	11.2	11.2	11.2	85	7.6	0	1	248	0.00	29.785 
08:15	11.6	11.6	11.6	85	8.0	0	0	---	0.00	29.792 
08:20	11.7	11.7	11.7	85	8.1	0	0	---	0.00	29.792 
08:25	11.9	11.9	11.9	85	8.3	0	0	---	0.00	29.792 
08:30	12.3	12.3	12.3	85	8.7	0	0	---	0.00	29.786 
08:35	12.4	12.4	12.4	85	8.8	0	0	---	0.00	29.786 
08:40	12.9	12.9	12.9	86	9.5	0	1	248	0.00	29.786 
08:45	13.3	13.3	13.3	86	9.9	0	1	248	0.00	29.785 
08:50	13.8	13.8	13.8	86	10.4	0	2	248	0.00	29.785 
08:55	14.1	14.1	14.1	86	10.7	0	1	248	0.00	29.785 
09:00	14.4	14.4	14.4	86	11.0	0	1	248	0.00	29.781 
09:05	14.8	14.8	14.8	86	11.4	0	1	248	0.00	29.781 
09:10	14.9	14.9	14.9	86	11.5	0	1	248	0.00	29.781 
09:15	15.1	15.1	15.1	86	11.7	0	1	248	0.00	29.787 
09:20	15.2	15.2	15.2	86	11.8	0	1	248	0.00	29.787 
09:25	15.4	15.4	15.4	86	12.0	0	1	248	0.00	29.787 
09:30	15.7	15.7	15.7	86	12.3	0	1	248	0.00	29.785 
09:35	16.1	16.1	16.1	86	12.7	0	2	248	0.00	29.785 
09:40	16.4	16.4	16.4	86	13.0	0	1	248	0.00	29.785 
09:45	16.7	16.7	16.7	86	13.3	0	1	248	0.00	29.786 
09:50	17.0	17.0	17.0	86	13.6	0	0	---	0.00	29.786 
09:55	17.5	17.5	17.5	86	14.0	0	1	248	0.00	29.786 
10:00	17.8	17.8	17.8	86	14.3	0	2	248	0.00	29.786 
10:05	18.1	18.1	18.1	86	14.6	0	2	248	0.00	29.786 
10:10	18.4	18.4	18.4	85	14.7	0	2	248	0.00	29.786 
10:15	18.8	18.8	18.8	85	15.1	0	1	248	0.00	29.799 
10:20	18.9	18.9	18.9	85	15.2	0	1	248	0.00	29.799 
10:25	19.2	19.2	19.2	84	15.2	0	2	248	0.00	29.799 
10:30	19.4	19.4	19.4	84	15.4	0	1	248	0.00	29.799 
10:35	19.7	19.7	19.7	83	15.4	0	0	---	0.00	29.799 
10:40	20.2	20.2	20.2	83	15.9	0	1	22	0.00	29.799 
10:45	20.5	20.5	20.5	82	15.9	0	1	22	0.00	29.795 
10:50	20.8	20.8	20.8	81	15.9	0	1	22	0.00	29.795 
10:55	21.3	21.3	21.3	80	16.1	0	1	22	0.00	29.795 
11:00	21.8	21.8	21.8	79	16.3	0	1	22	0.00	29.787 
11:05	22.2	22.2	22.2	78	16.4	0	2	22	0.00	29.787 
11:10	22.5	22.5	22.5	77	16.4	0	1	22	0.00	29.787 
11:15	22.9	22.9	22.9	77	16.8	0	2	22	0.00	29.790 
11:20	23.3	23.3	23.3	76	16.9	0	2	22	0.00	29.790 
11:25	23.6	23.6	23.6	75	16.9	0	3	22	0.00	29.790 
11:30	24.1	24.1	24.1	74	17.0	0	2	22	0.00	29.790 
11:35	24.5	24.5	24.5	74	17.4	0	3	22	0.00	29.790 
11:40	24.8	24.8	24.8	73	17.4	0	1	22	0.00	29.790 
11:45	25.3	25.3	25.3	72	17.6	0	1	22	0.00	29.787 
11:50	25.4	25.4	25.4	71	17.3	0	3	22	0.00	29.787 
11:55	25.7	25.7	25.7	71	17.6	0	3	112	0.00	29.787 
12:00	26.0	26.0	26.0	70	17.6	0	1	112	0.00	29.782 
12:05	26.3	26.3	26.3	70	17.9	0	2	112	0.00	29.782 
12:10	26.6	26.6	26.6	69	17.8	0	2	112	0.00	29.782 
12:15	27.0	27.0	27.0	69	18.2	0	2	112	0.00	29.783 
12:20	27.5	27.5	27.5	68	18.3	0	1	112	0.00	29.783 
12:25	27.6	27.6	27.6	67	18.1	0	2	112	0.00	29.783 
12:30	27.8	27.8	27.8	67	18.3	0	3	112	0.00	29.777 
12:35	27.9	27.9	27.9	67	18.4	0	2	338	0.00	29.777 
12:40	27.9	27.9	27.9	66	18.0	0	2	338	0.00	29.777 
12:45	28.1	28.1	28.1	66	18.2	1	2	68	0.00	29.771 
12:50	28.2	28.2	28.2	67	18.7	1	3	68	0.00	29.771 
12:55	28.2	28.2	28.2	65	18.0	0	2	68	0.00	29.771 
13:00	28.2	28.2	28.2	65	18.0	1	3	90	0.00	29.766 
13:05	28.4	28.4	28.4	65	18.2	0	2	45	0.00	29.766 
13:10	28.4	28.4	28.4	65	18.2	0	2	45	0.00	29.766 
13:15	28.4	28.4	28.4	65	18.2	0	2	292	0.00	29.765 
13:20	28.5	28.5	28.5	65	18.3	0	2	292	0.01	29.765 
13:25	28.4	28.4	28.4	64	17.8	1	3	315	0.00	29.765 
13:30	28.2	28.2	28.2	65	18.0	0	2	315	0.00	29.762 
13:35	28.2	28.2	28.2	65	18.0	1	4	135	0.00	29.762 
13:40	28.1	28.1	28.1	64	17.5	1	3	0	0.00	29.762 
13:45	28.1	28.1	28.1	65	17.9	1	3	45	0.00	29.758 
13:50	28.2	28.2	28.2	65	18.0	0	2	45	0.00	29.758 
13:55	28.4	28.4	28.4	64	17.8	0	2	338	0.00	29.758 
14:00	28.4	28.4	28.4	64	17.8	1	3	292	0.00	29.753 
14:05	28.4	28.4	28.4	64	17.8	1	4	22	0.00	29.753 
14:10	28.5	28.5	28.5	64	17.9	1	3	22	0.00	29.753 
14:15	28.5	28.5	28.5	63	17.5	1	4	292	0.00	29.752 
14:20	28.4	28.4	28.4	62	17.1	1	3	22	0.00	29.752 
14:25	28.2	28.2	28.2	62	16.9	1	2	338	0.00	29.752 
14:30	28.1	28.1	28.1	61	16.4	1	4	292	0.00	29.754 
14:35	27.9	27.9	27.9	62	16.6	1	3	292	0.00	29.754 
14:40	27.8	27.8	27.8	61	16.1	1	4	315	0.00	29.754 
14:45	27.6	27.6	27.6	62	16.3	1	6	315	0.00	29.758 
14:50	27.5	27.5	27.5	62	16.2	1	5	338	0.00	29.758 
14:55	27.6	27.6	27.6	61	15.9	1	4	22	0.00	29.758 
15:00	27.6	27.6	27.6	61	15.9	1	3	0	0.00	29.756 
15:05	27.8	27.8	27.8	61	16.1	1	5	22	0.00	29.756 
15:10	27.8	27.8	27.8	61	16.1	1	6	315	0.00	29.756 
15:15	27.8	27.8	27.8	60	15.7	2	4	270	0.00	29.760 
15:20	27.8	27.8	27.8	61	16.1	2	7	270	0.00	29.760 
15:25	27.8	27.8	27.8	61	16.1	1	3	315	0.00	29.760 
15:30	27.8	27.8	27.8	61	16.1	1	4	338	0.00	29.767 
15:35	27.8	27.8	27.8	60	15.7	1	5	315	0.00	29.767 
15:40	27.8	27.8	27.8	60	15.7	1	3	270	0.00	29.767 
15:45	27.9	27.9	27.9	60	15.8	1	3	270	0.00	29.767 
15:50	28.1	28.1	28.1	60	16.0	1	3	270	0.00	29.767 
15:55	28.2	28.2	28.2	60	16.1	1	3	338	0.00	29.767 
16:00	28.4	28.4	28.4	60	16.3	0	3	338	0.00	29.768 
16:05	28.4	28.4	28.4	60	16.3	1	3	270	0.00	29.768 
16:10	28.4	28.4	28.4	59	15.9	0	2	0	0.00	29.768 
16:15	28.2	28.2	28.2	60	16.1	0	4	22	0.00	29.769 
16:20	28.2	28.2	28.2	59	15.7	1	3	248	0.00	29.769 
16:25	28.1	28.1	28.1	60	16.0	0	2	338	0.00	29.769 
16:30	28.1	28.1	28.1	59	15.6	1	3	315	0.00	29.771 
16:35	28.1	28.1	28.1	60	16.0	0	2	315	0.00	29.771 
16:40	28.2	28.2	28.2	60	16.1	0	2	315	0.00	29.771 
16:45	28.2	28.2	28.2	60	16.1	0	2	315	0.00	29.775 
16:50	28.2	28.2	28.2	60	16.1	0	2	315	0.00	29.775 
16:55	28.2	28.2	28.2	60	16.1	0	2	315	0.00	29.775 
17:00	28.2	28.2	28.2	60	16.1	0	1	315	0.00	29.778 
17:05	28.2	28.2	28.2	60	16.1	0	1	315	0.00	29.778 
17:10	28.4	28.4	28.4	60	16.3	0	1	315	0.00	29.778 
17:15	28.4	28.4	28.4	59	15.9	0	1	315	0.00	29.780 
17:20	28.4	28.4	28.4	59	15.9	0	1	315	0.00	29.780 
17:25	28.5	28.5	28.5	59	16.0	0	2	315	0.00	29.780 
17:30	28.5	28.5	28.5	60	16.4	0	1	315	0.00	29.783 
17:35	28.7	28.7	28.7	59	16.2	0	1	315	0.00	29.783 
17:40	28.7	28.7	28.7	59	16.2	0	2	315	0.00	29.783 
17:45	28.5	28.5	28.5	59	16.0	1	2	315	0.00	29.784 
17:50	28.5	28.5	28.5	59	16.0	0	2	315	0.00	29.784 
17:55	28.4	28.4	28.4	59	15.9	0	3	315	0.00	29.784 
18:00	28.4	28.4	28.4	59	15.9	0	2	270	0.00	29.791 
18:05	28.2	28.2	28.2	60	16.1	0	1	292	0.00	29.791 
18:10	28.2	28.2	28.2	60	16.1	0	3	292	0.00	29.791 
18:15	28.2	28.2	28.2	60	16.1	1	3	315	0.00	29.798 
18:20	28.2	28.2	28.2	61	16.5	1	3	315	0.00	29.798 
18:25	28.1	28.1	28.1	61	16.4	0	2	315	0.00	29.798 
18:30	28.1	28.1	28.1	62	16.8	0	2	315	0.00	29.801 
18:35	28.1	28.1	28.1	62	16.8	1	3	315	0.00	29.801 
18:40	27.9	27.9	27.9	62	16.6	0	2	315	0.00	29.801 
18:45	27.9	27.9	27.9	62	16.6	2	3	315	0.00	29.808 
18:50	27.8	27.8	27.8	63	16.9	2	4	315	0.00	29.808 
18:55	27.6	27.6	27.6	64	17.0	2	4	248	0.00	29.808 
19:00	27.5	27.5	27.5	65	17.3	2	4	248	0.00	29.815 
19:05	27.3	27.3	27.3	66	17.5	1	3	315	0.00	29.815 
19:10	27.2	27.2	27.2	67	17.7	2	6	270	0.00	29.815 
19:15	27.0	27.0	27.0	68	17.9	2	4	270	0.00	29.812 
19:20	26.9	26.9	26.9	69	18.1	1	4	270	0.00	29.812 
19:25	26.7	26.7	26.7	70	18.3	1	4	248	0.00	29.812 
19:30	26.6	26.6	26.6	71	18.5	2	4	270	0.00	29.812 
19:35	26.6	26.6	26.6	72	18.8	1	3	225	0.00	29.812 
19:40	26.4	26.4	26.4	73	18.9	1	3	248	0.00	29.812 
19:45	26.3	26.3	26.3	73	18.8	1	4	270	0.00	29.816 
19:50	26.3	26.3	26.3	75	19.5	2	3	270	0.00	29.816 
19:55	26.1	26.1	26.1	76	19.6	1	3	248	0.00	29.816 
20:00	26.0	26.0	26.0	77	19.8	1	3	270	0.00	29.817 
20:05	25.8	25.8	25.8	78	19.9	2	4	248	0.00	29.817 
20:10	25.8	25.8	25.8	79	20.2	1	3	270	0.00	29.817 
20:15	25.7	25.7	25.7	80	20.4	1	4	270	0.00	29.811 
20:20	25.6	25.6	25.6	80	20.3	1	3	315	0.00	29.811 
20:25	25.4	25.4	25.4	81	20.4	1	3	225	0.00	29.811 
20:30	25.4	25.4	25.4	81	20.4	1	3	225	0.00	29.811 
20:35	25.4	25.4	25.4	81	20.4	1	2	225	0.00	29.811 
20:40	25.4	25.4	25.4	81	20.4	0	2	225	0.00	29.811 
20:45	25.4	25.4	25.4	81	20.4	1	3	225	0.00	29.811 
20:50	25.4	25.4	25.4	81	20.4	1	2	225	0.00	29.811 
20:55	25.4	25.4	25.4	81	20.4	0	3	225	0.00	29.811 
21:00	25.4	25.4	25.4	81	20.4	1	3	225	0.00	29.811 
21:05	25.4	25.4	25.4	81	20.4	1	2	225	0.00	29.811 
21:10	25.4	25.4	25.4	82	20.7	1	3	248	0.00	29.811 
21:15	25.4	25.4	25.4	82	20.7	1	3	248	0.00	29.806 
21:20	25.4	25.4	25.4	83	21.0	1	2	248	0.00	29.806 
21:25	25.4	25.4	25.4	83	21.0	0	2	248	0.00	29.806 
21:30	25.4	25.4	25.4	83	21.0	1	3	248	0.00	29.802 
21:35	25.4	25.4	25.4	84	21.3	1	4	248	0.00	29.802 
21:40	25.4	25.4	25.4	84	21.3	1	2	248	0.00	29.802 
21:45	25.4	25.4	25.4	84	21.3	1	2	248	0.00	29.796 
21:50	25.4	25.4	25.4	84	21.3	1	3	248	0.00	29.796 
21:55	25.4	25.4	25.4	84	21.3	0	2	248	0.00	29.796 
22:00	25.6	25.6	25.6	85	21.7	1	4	248	0.00	29.797 
22:05	25.6	25.6	25.6	85	21.7	2	5	248	0.00	29.797 
22:10	25.6	25.6	25.6	85	21.7	2	4	270	0.00	29.797 
22:15	25.6	25.6	25.6	84	21.5	2	3	248	0.00	29.790 
22:20	25.6	25.6	25.6	84	21.5	1	6	270	0.00	29.790 
22:25	25.4	25.4	25.4	83	21.0	2	5	248	0.00	29.790 
22:30	25.4	25.4	25.4	82	20.7	2	5	270	0.00	29.791 
22:35	25.3	25.3	25.3	81	20.3	1	5	270	0.00	29.791 
22:40	25.3	25.3	25.3	81	20.3	2	7	292	0.00	29.791 
22:45	25.0	25.0	25.0	80	19.7	2	5	270	0.00	29.790 
22:50	25.0	25.0	25.0	80	19.7	2	4	270	0.00	29.790 
22:55	24.8	24.8	24.8	80	19.5	2	4	270	0.00	29.790 
23:00	24.7	24.7	24.7	79	19.1	2	4	270	0.00	29.788 
23:05	24.7	24.7	24.7	79	19.1	1	3	270	0.00	29.788 
23:10	24.5	24.5	24.5	79	18.9	2	6	270	0.00	29.788 
23:15	24.5	24.5	24.5	79	18.9	2	5	248	0.00	29.782 
23:20	24.5	24.5	24.5	79	18.9	2	4	270	0.00	29.782 
23:25	24.5	24.5	24.5	79	18.9	1	3	292	0.00	29.782 
23:30	24.4	24.4	24.4	79	18.8	2	7	270	0.00	29.778 
23:35	24.4	24.4	24.4	79	18.8	2	4	270	0.00	29.778 
23:40	24.4	24.4	24.4	79	18.8	2	4	225	0.00	29.778 
23:45	24.4	24.4	24.4	79	18.8	2	3	225	0.00	29.774 
23:50	24.2	24.2	24.2	80	18.9	2	6	270	0.00	29.774 
23:55	24.2	24.2	24.2	81	19.2	3	7	248	0.00	29.774 

CoCoRaHS
IN-AL-39
A2 Web Hosting
Creative Commons License
GoDaddy
search engine by freefind advanced

loaded 2018-11-20 02:29:48 • last modified 2010-11-18 10:43:29
Privacy PolicyDisclaimer
• wx.awcolley.com is powered by PmWiki v.2002016 •
• all content (unless otherwise noted) © 2018 A W Colley